createdAt,value
2017-10-25T00:01:09.309Z,9.43
2017-10-25T00:03:36.574Z,9.60
2017-10-25T00:06:03.834Z,8.43
2017-10-25T00:08:31.142Z,10.50
2017-10-25T00:10:58.402Z,9.90
2017-10-25T00:13:25.663Z,8.63
2017-10-25T00:15:52.950Z,7.70
2017-10-25T00:18:20.224Z,10.30
2017-10-25T00:20:47.523Z,8.97
2017-10-25T00:23:14.791Z,8.40
2017-10-25T00:25:42.058Z,8.00
2017-10-25T00:28:09.354Z,8.30
2017-10-25T00:30:37.582Z,7.47
2017-10-25T00:33:04.847Z,7.47
2017-10-25T00:35:32.139Z,7.73
2017-10-25T00:37:59.435Z,6.47
2017-10-25T00:40:26.719Z,6.57
2017-10-25T00:42:54.041Z,6.80
2017-10-25T00:45:21.346Z,6.23
2017-10-25T00:47:48.734Z,5.93
2017-10-25T00:50:16.016Z,6.17
2017-10-25T00:52:43.333Z,5.50
2017-10-25T00:55:10.583Z,6.40
2017-10-25T00:57:37.850Z,5.70
2017-10-25T01:00:05.133Z,5.30
2017-10-25T01:02:32.392Z,5.63
2017-10-25T01:04:59.670Z,4.90
2017-10-25T01:07:26.956Z,6.03
2017-10-25T01:09:54.219Z,5.20
2017-10-25T01:12:21.510Z,4.80
2017-10-25T01:14:48.803Z,5.30
2017-10-25T01:17:16.247Z,6.30
2017-10-25T01:19:43.530Z,5.50
2017-10-25T01:22:10.815Z,4.17
2017-10-25T01:24:38.140Z,4.40
2017-10-25T01:27:05.508Z,5.50
2017-10-25T01:29:32.803Z,5.53
2017-10-25T01:32:00.106Z,5.53
2017-10-25T01:34:27.389Z,5.40
2017-10-25T01:36:54.699Z,5.80
2017-10-25T01:39:22.026Z,5.37
2017-10-25T01:41:49.305Z,5.37
2017-10-25T01:44:16.595Z,6.37
2017-10-25T01:46:43.882Z,5.73
2017-10-25T01:49:11.175Z,5.43
2017-10-25T01:51:38.435Z,6.30
2017-10-25T01:54:05.723Z,6.30
2017-10-25T01:56:32.984Z,6.30
2017-10-25T01:59:00.288Z,7.63
2017-10-25T02:01:27.549Z,8.47
2017-10-25T02:03:54.833Z,7.37
2017-10-25T02:06:22.122Z,7.53
2017-10-25T02:08:49.391Z,7.30
2017-10-25T02:11:16.672Z,7.10
2017-10-25T02:13:43.957Z,6.70
2017-10-25T02:16:11.222Z,6.70
2017-10-25T02:18:38.518Z,7.33
2017-10-25T02:21:05.799Z,5.97
2017-10-25T02:23:33.087Z,5.70
2017-10-25T02:26:00.350Z,6.70
2017-10-25T02:28:27.635Z,6.20
2017-10-25T02:30:54.922Z,6.83
2017-10-25T02:33:22.184Z,6.20
2017-10-25T02:35:49.467Z,6.10
2017-10-25T02:38:16.734Z,5.97
2017-10-25T02:40:44.029Z,6.53
2017-10-25T02:43:11.279Z,6.73
2017-10-25T02:45:38.576Z,6.93
2017-10-25T02:48:05.835Z,6.80
2017-10-25T02:50:33.096Z,6.17
2017-10-25T02:53:00.387Z,7.30
2017-10-25T02:55:27.649Z,6.57
2017-10-25T02:57:54.927Z,6.57
2017-10-25T03:00:22.215Z,7.87
2017-10-25T03:02:49.471Z,7.27
2017-10-25T03:05:16.726Z,7.57
2017-10-25T03:07:44.035Z,7.10
2017-10-25T03:10:11.318Z,6.40
2017-10-25T03:12:38.608Z,6.23
2017-10-25T03:15:05.866Z,6.90
2017-10-25T03:17:33.124Z,5.40
2017-10-25T03:20:00.442Z,5.90
2017-10-25T03:22:27.775Z,6.47
2017-10-25T03:24:55.070Z,6.03
2017-10-25T03:27:22.365Z,5.30
2017-10-25T03:29:49.615Z,6.00
2017-10-25T03:32:16.908Z,6.17
2017-10-25T03:34:44.199Z,5.90
2017-10-25T03:37:11.464Z,5.17
2017-10-25T03:39:38.795Z,5.50
2017-10-25T03:42:06.055Z,5.40
2017-10-25T03:44:33.315Z,5.43
2017-10-25T03:47:00.617Z,4.87
2017-10-25T03:49:27.892Z,5.50
2017-10-25T03:51:55.177Z,4.50
2017-10-25T03:54:22.468Z,5.07
2017-10-25T03:56:49.732Z,4.63
2017-10-25T03:59:16.993Z,4.60
2017-10-25T04:01:44.291Z,4.50
2017-10-25T04:04:11.550Z,5.17
2017-10-25T04:06:38.815Z,5.53
2017-10-25T04:09:06.106Z,5.30
2017-10-25T04:11:33.363Z,4.90
2017-10-25T04:14:00.621Z,4.70
2017-10-25T04:16:27.910Z,5.07
2017-10-25T04:18:55.172Z,5.37
2017-10-25T04:21:22.456Z,5.17
2017-10-25T04:23:49.743Z,5.30
2017-10-25T04:26:17.022Z,4.90
2017-10-25T04:28:44.343Z,5.10
2017-10-25T04:31:11.726Z,4.57
2017-10-25T04:33:39.055Z,4.37
2017-10-25T04:36:06.378Z,5.43
2017-10-25T04:38:33.647Z,4.83
2017-10-25T04:41:00.933Z,4.87
2017-10-25T04:43:28.224Z,4.90
2017-10-25T04:45:55.490Z,5.57
2017-10-25T04:48:22.748Z,5.70
2017-10-25T04:50:50.061Z,5.40
2017-10-25T04:53:17.308Z,4.70
2017-10-25T04:55:44.602Z,5.00
2017-10-25T04:58:12.776Z,5.20
2017-10-25T05:00:40.049Z,4.10
2017-10-25T05:03:07.307Z,5.17
2017-10-25T05:05:34.646Z,5.27
2017-10-25T05:08:01.943Z,4.60
2017-10-25T05:10:29.214Z,4.27
2017-10-25T05:12:56.510Z,5.00
2017-10-25T05:15:23.800Z,5.90
2017-10-25T05:17:51.059Z,5.90
2017-10-25T05:20:18.355Z,4.93
2017-10-25T05:22:45.623Z,5.03
2017-10-25T05:25:12.885Z,5.20
2017-10-25T05:27:40.173Z,6.30
2017-10-25T05:30:07.462Z,6.10
2017-10-25T05:32:34.784Z,7.13
2017-10-25T05:35:02.050Z,8.23
2017-10-25T05:37:29.320Z,7.63
2017-10-25T05:39:56.612Z,7.53
2017-10-25T05:42:23.931Z,8.00
2017-10-25T05:44:51.220Z,8.83
2017-10-25T05:47:18.499Z,9.50
2017-10-25T05:49:46.730Z,9.10
2017-10-25T05:52:13.992Z,9.17
2017-10-25T05:54:41.415Z,10.10
2017-10-25T05:57:08.715Z,10.80
2017-10-25T05:59:36.062Z,10.00
2017-10-25T06:02:03.368Z,9.27
2017-10-25T06:04:30.714Z,10.77
2017-10-25T06:06:58.086Z,9.70
2017-10-25T06:09:25.435Z,9.50
2017-10-25T06:11:52.800Z,9.47
2017-10-25T06:14:20.114Z,9.53
2017-10-25T06:16:47.415Z,8.50
2017-10-25T06:19:14.715Z,8.90
2017-10-25T06:21:42.024Z,11.63
2017-10-25T06:24:09.361Z,12.20
2017-10-25T06:26:36.691Z,12.27
2017-10-25T06:29:04.028Z,13.03
2017-10-25T06:31:31.306Z,12.53
2017-10-25T06:33:58.655Z,11.20
2017-10-25T06:36:25.955Z,10.70
2017-10-25T06:38:53.286Z,11.43
2017-10-25T06:41:20.596Z,9.87
2017-10-25T06:43:47.951Z,10.80
2017-10-25T06:46:15.261Z,10.60
2017-10-25T06:48:42.570Z,10.27
2017-10-25T06:51:09.865Z,10.27
2017-10-25T06:53:37.183Z,9.80
2017-10-25T06:56:04.460Z,9.70
2017-10-25T06:58:31.736Z,10.20
2017-10-25T07:00:59.143Z,10.17
2017-10-25T07:03:26.447Z,8.53
2017-10-25T07:05:53.718Z,8.60
2017-10-25T07:08:21.026Z,10.07
2017-10-25T07:10:48.296Z,9.50
2017-10-25T07:13:15.563Z,9.50
2017-10-25T07:15:42.859Z,7.47
2017-10-25T07:18:10.163Z,6.60
2017-10-25T07:20:37.458Z,7.83
2017-10-25T07:23:04.734Z,7.60
2017-10-25T07:25:31.986Z,6.17
2017-10-25T07:27:59.275Z,6.57
2017-10-25T07:30:26.531Z,5.33
2017-10-25T07:32:53.811Z,4.70
2017-10-25T07:35:21.104Z,4.90
2017-10-25T07:37:48.363Z,4.40
2017-10-25T07:40:15.667Z,4.97
2017-10-25T07:42:42.957Z,3.80
2017-10-25T07:45:10.237Z,3.67
2017-10-25T07:47:37.489Z,3.63
2017-10-25T07:50:04.815Z,4.80
2017-10-25T07:52:32.058Z,4.30
2017-10-25T07:54:59.383Z,3.50
2017-10-25T07:57:26.688Z,3.60
2017-10-25T07:59:53.995Z,3.83
2017-10-25T08:02:21.264Z,3.73
2017-10-25T08:04:48.571Z,4.20
2017-10-25T08:07:15.858Z,4.23
2017-10-25T08:09:43.150Z,3.90
2017-10-25T08:12:10.419Z,3.40
2017-10-25T08:14:37.693Z,3.10
2017-10-25T08:17:04.956Z,3.10
2017-10-25T08:19:32.249Z,2.80
2017-10-25T08:21:59.538Z,3.67
2017-10-25T08:24:26.798Z,4.00
2017-10-25T08:26:54.058Z,3.60
2017-10-25T08:29:21.353Z,3.53
2017-10-25T08:31:48.608Z,3.57
2017-10-25T08:34:15.883Z,3.37
2017-10-25T08:36:43.170Z,3.47
2017-10-25T08:39:10.429Z,3.93
2017-10-25T08:41:37.692Z,3.37
2017-10-25T08:44:04.976Z,3.27
2017-10-25T08:46:32.231Z,3.37
2017-10-25T08:48:59.526Z,3.27
2017-10-25T08:51:26.777Z,3.70
2017-10-25T08:53:54.068Z,3.13
2017-10-25T08:56:21.357Z,3.83
2017-10-25T08:58:48.610Z,3.70
2017-10-25T09:01:15.904Z,3.83
2017-10-25T09:03:43.158Z,3.73
2017-10-25T09:06:10.433Z,3.10
2017-10-25T09:08:37.711Z,4.47
2017-10-25T09:11:04.972Z,3.30
2017-10-25T09:13:32.272Z,3.60
2017-10-25T09:15:59.529Z,3.10
2017-10-25T09:18:26.787Z,4.10
2017-10-25T09:20:54.291Z,3.67
2017-10-25T09:23:21.579Z,3.20
2017-10-25T09:25:48.836Z,4.07
2017-10-25T09:28:16.876Z,3.10
2017-10-25T09:30:44.199Z,3.93
2017-10-25T09:33:11.497Z,3.73
2017-10-25T09:35:38.783Z,3.90
2017-10-25T09:38:06.075Z,4.50
2017-10-25T09:40:33.337Z,3.70
2017-10-25T09:43:00.626Z,3.33
2017-10-25T09:45:27.878Z,4.03
2017-10-25T09:47:55.182Z,3.70
2017-10-25T09:50:22.452Z,2.97
2017-10-25T09:52:49.703Z,3.23
2017-10-25T09:55:17.005Z,3.10
2017-10-25T09:57:44.260Z,2.90
2017-10-25T10:00:11.554Z,2.70
2017-10-25T10:02:38.811Z,3.17
2017-10-25T10:05:06.112Z,2.53
2017-10-25T10:07:33.370Z,2.70
2017-10-25T10:10:00.639Z,2.47
2017-10-25T10:12:28.029Z,2.60
2017-10-25T10:14:55.262Z,2.50
2017-10-25T10:17:22.522Z,2.80
2017-10-25T10:19:49.807Z,2.43
2017-10-25T10:22:17.073Z,2.87
2017-10-25T10:24:44.356Z,2.47
2017-10-25T10:27:11.642Z,2.37
2017-10-25T10:29:38.903Z,1.83
2017-10-25T10:32:06.199Z,2.60
2017-10-25T10:34:33.471Z,2.80
2017-10-25T10:37:00.754Z,2.37
2017-10-25T10:39:28.055Z,2.20
2017-10-25T10:41:55.310Z,2.50
2017-10-25T10:44:22.610Z,1.90
2017-10-25T10:46:49.900Z,2.23
2017-10-25T10:49:17.423Z,2.00
2017-10-25T10:51:44.730Z,2.30
2017-10-25T10:54:12.010Z,1.97
2017-10-25T10:56:39.302Z,1.73
2017-10-25T10:59:06.576Z,2.17
2017-10-25T11:01:33.865Z,2.00
2017-10-25T11:04:01.164Z,2.60
2017-10-25T11:06:28.484Z,1.90
2017-10-25T11:08:55.747Z,1.90
2017-10-25T11:11:23.044Z,2.00
2017-10-25T11:13:50.303Z,1.87
2017-10-25T11:16:17.575Z,1.70
2017-10-25T11:18:44.859Z,1.73
2017-10-25T11:21:12.119Z,1.40
2017-10-25T11:23:39.404Z,1.30
2017-10-25T11:26:06.667Z,1.60
2017-10-25T11:28:33.955Z,1.87
2017-10-25T11:31:01.245Z,1.90
2017-10-25T11:33:28.503Z,1.40
2017-10-25T11:35:55.794Z,1.40
2017-10-25T11:38:23.054Z,1.40
2017-10-25T11:40:50.377Z,1.40
2017-10-25T11:43:17.699Z,1.53
2017-10-25T11:45:44.974Z,1.60
2017-10-25T11:48:12.248Z,2.13
2017-10-25T11:50:39.567Z,2.50
2017-10-25T11:53:06.839Z,2.43
2017-10-25T11:55:34.120Z,1.63
2017-10-25T11:58:01.406Z,1.30
2017-10-25T12:00:28.675Z,1.57
2017-10-25T12:02:55.979Z,1.63
2017-10-25T12:05:23.234Z,1.50
2017-10-25T12:07:50.526Z,1.47
2017-10-25T12:10:17.797Z,1.50
2017-10-25T12:12:45.103Z,1.70
2017-10-25T12:15:12.363Z,1.43
2017-10-25T12:17:39.662Z,1.73
2017-10-25T12:20:06.936Z,2.00
2017-10-25T12:22:34.224Z,1.27
2017-10-25T12:25:01.482Z,1.10
2017-10-25T12:27:28.785Z,1.60
2017-10-25T12:29:56.098Z,1.37
2017-10-25T12:32:23.410Z,1.23
2017-10-25T12:34:50.696Z,1.30
2017-10-25T12:37:17.984Z,1.40
2017-10-25T12:39:45.248Z,1.50
2017-10-25T12:42:12.550Z,1.27
2017-10-25T12:44:39.870Z,1.40
2017-10-25T12:47:07.141Z,1.90
2017-10-25T12:49:34.419Z,1.40
2017-10-25T12:52:01.728Z,1.53
2017-10-25T12:54:29.019Z,1.13
2017-10-25T12:56:56.288Z,1.67
2017-10-25T12:59:23.595Z,1.63
2017-10-25T13:01:50.890Z,1.60
2017-10-25T13:04:18.171Z,1.43
2017-10-25T13:06:45.465Z,1.70
2017-10-25T13:09:12.728Z,1.40
2017-10-25T13:11:41.586Z,1.70
2017-10-25T13:14:10.411Z,1.57
2017-10-25T13:16:39.841Z,1.70
2017-10-25T13:19:07.311Z,2.00
2017-10-25T13:21:34.603Z,1.30
2017-10-25T13:24:01.910Z,1.57
2017-10-25T13:26:29.193Z,1.70
2017-10-25T13:28:56.459Z,2.10
2017-10-25T13:31:23.755Z,1.50
2017-10-25T13:33:51.051Z,1.93
2017-10-25T13:36:18.356Z,1.97
2017-10-25T13:38:45.616Z,1.70
2017-10-25T13:41:12.910Z,1.47
2017-10-25T13:43:40.211Z,1.40
2017-10-25T13:46:07.474Z,1.67
2017-10-25T13:48:34.787Z,1.53
2017-10-25T13:51:02.059Z,1.57
2017-10-25T13:53:29.355Z,1.53
2017-10-25T13:55:56.656Z,1.70
2017-10-25T13:58:23.954Z,2.10
2017-10-25T14:00:51.211Z,2.13
2017-10-25T14:03:18.498Z,1.83
2017-10-25T14:05:45.789Z,2.00
2017-10-25T14:08:13.063Z,1.70
2017-10-25T14:10:40.370Z,1.80
2017-10-25T14:13:07.642Z,2.07
2017-10-25T14:15:34.949Z,1.87
2017-10-25T14:18:02.230Z,2.13
2017-10-25T14:20:29.539Z,2.13
2017-10-25T14:22:56.815Z,1.93
2017-10-25T14:25:24.073Z,2.07
2017-10-25T14:27:57.271Z,1.87
2017-10-25T14:30:24.614Z,2.00
2017-10-25T14:32:51.892Z,2.40
2017-10-25T14:35:19.191Z,2.20
2017-10-25T14:37:46.508Z,2.30
2017-10-25T14:40:13.807Z,2.00
2017-10-25T14:42:41.183Z,2.43
2017-10-25T14:45:08.451Z,1.70
2017-10-25T14:47:35.715Z,2.20
2017-10-25T14:50:03.028Z,2.13
2017-10-25T14:52:30.295Z,1.80
2017-10-25T14:54:57.607Z,2.17
2017-10-25T14:57:24.867Z,2.53
2017-10-25T14:59:52.129Z,2.43
2017-10-25T15:02:19.448Z,2.90
2017-10-25T15:04:46.723Z,2.93
2017-10-25T15:07:14.032Z,2.40
2017-10-25T15:09:41.340Z,2.27
2017-10-25T15:12:08.603Z,2.20
2017-10-25T15:14:35.955Z,1.90
2017-10-25T15:17:03.215Z,2.67
2017-10-25T15:19:30.484Z,2.37
2017-10-25T15:21:57.795Z,2.40
2017-10-25T15:24:25.060Z,2.30
2017-10-25T15:26:52.368Z,2.70
2017-10-25T15:29:19.630Z,2.43
2017-10-25T15:31:46.912Z,2.70
2017-10-25T15:34:14.209Z,2.67
2017-10-25T15:36:41.494Z,2.40
2017-10-25T15:39:08.811Z,2.40
2017-10-25T15:41:36.086Z,2.33
2017-10-25T15:44:03.513Z,2.90
2017-10-25T15:46:30.846Z,2.33
2017-10-25T15:48:58.132Z,2.90
2017-10-25T15:51:25.403Z,2.30
2017-10-25T15:53:52.739Z,2.77
2017-10-25T15:56:20.019Z,2.17
2017-10-25T15:58:47.295Z,2.80
2017-10-25T16:01:14.585Z,2.53
2017-10-25T16:03:41.865Z,2.40
2017-10-25T16:06:09.166Z,2.67
2017-10-25T16:08:36.433Z,3.37
2017-10-25T16:11:03.708Z,2.90
2017-10-25T16:13:31.008Z,2.23
2017-10-25T16:15:58.303Z,2.67
2017-10-25T16:18:25.583Z,2.47
2017-10-25T16:20:52.897Z,4.90
2017-10-25T16:23:20.206Z,4.07
2017-10-25T16:25:47.488Z,5.43
2017-10-25T16:28:14.800Z,3.70
2017-10-25T16:30:42.132Z,3.00
2017-10-25T16:33:09.430Z,3.40
2017-10-25T16:35:36.699Z,3.57
2017-10-25T16:38:04.028Z,3.20
2017-10-25T16:40:31.311Z,2.93
2017-10-25T16:42:58.612Z,3.00
2017-10-25T16:45:25.920Z,2.50
2017-10-25T16:47:54.145Z,2.73
2017-10-25T16:50:21.427Z,2.60
2017-10-25T16:52:48.782Z,2.60
2017-10-25T16:55:16.047Z,3.20
2017-10-25T16:57:43.374Z,3.30
2017-10-25T17:00:10.687Z,3.10
2017-10-25T17:02:37.991Z,2.73
2017-10-25T17:05:05.276Z,3.07
2017-10-25T17:07:32.571Z,3.13
2017-10-25T17:09:59.896Z,3.00
2017-10-25T17:12:27.168Z,3.37
2017-10-25T17:14:54.712Z,3.60
2017-10-25T17:17:22.927Z,2.73
2017-10-25T17:19:50.188Z,3.50
2017-10-25T17:22:17.618Z,3.00
2017-10-25T17:24:44.899Z,3.40
2017-10-25T17:27:12.413Z,3.20
2017-10-25T17:29:39.707Z,3.00
2017-10-25T17:32:07.010Z,2.87
2017-10-25T17:34:34.312Z,3.57
2017-10-25T17:37:01.605Z,3.47
2017-10-25T17:39:28.935Z,3.37
2017-10-25T17:41:56.194Z,3.97
2017-10-25T17:44:23.478Z,3.13
2017-10-25T17:46:50.792Z,3.90
2017-10-25T17:49:18.107Z,3.53
2017-10-25T17:51:45.428Z,3.57
2017-10-25T17:54:12.769Z,3.40
2017-10-25T17:56:40.130Z,3.30
2017-10-25T17:59:07.395Z,3.73
2017-10-25T18:01:34.692Z,3.10
2017-10-25T18:04:02.157Z,3.53
2017-10-25T18:06:29.604Z,4.20
2017-10-25T18:08:56.888Z,3.50
2017-10-25T18:11:25.746Z,3.57
2017-10-25T18:13:53.326Z,3.23
2017-10-25T18:16:20.693Z,3.07
2017-10-25T18:18:47.999Z,3.97
2017-10-25T18:21:15.274Z,2.83
2017-10-25T18:23:42.563Z,3.00
2017-10-25T18:26:09.868Z,3.33
2017-10-25T18:28:37.171Z,3.57
2017-10-25T18:31:04.456Z,3.33
2017-10-25T18:33:31.802Z,3.80
2017-10-25T18:35:59.079Z,3.17
2017-10-25T18:38:26.380Z,3.63
2017-10-25T18:40:53.672Z,3.80
2017-10-25T18:43:20.967Z,3.40
2017-10-25T18:45:48.235Z,2.80
2017-10-25T18:48:15.528Z,3.50
2017-10-25T18:50:42.787Z,4.00
2017-10-25T18:53:10.112Z,3.73
2017-10-25T18:55:37.405Z,3.20
2017-10-25T18:58:04.744Z,3.20
2017-10-25T19:00:32.022Z,3.80
2017-10-25T19:02:59.299Z,4.17
2017-10-25T19:05:26.567Z,4.30
2017-10-25T19:07:53.823Z,4.70
2017-10-25T19:10:21.104Z,3.27
2017-10-25T19:12:48.367Z,3.40
2017-10-25T19:15:15.667Z,3.60
2017-10-25T19:17:42.926Z,4.00
2017-10-25T19:20:10.211Z,3.63
2017-10-25T19:22:37.474Z,3.90
2017-10-25T19:25:04.815Z,4.23
2017-10-25T19:27:32.075Z,4.70
2017-10-25T19:29:59.342Z,4.00
2017-10-25T19:32:26.609Z,3.53
2017-10-25T19:34:53.908Z,3.60
2017-10-25T19:37:21.170Z,3.47
2017-10-25T19:39:48.611Z,3.73
2017-10-25T19:42:15.895Z,3.27
2017-10-25T19:44:43.174Z,3.17
2017-10-25T19:47:10.435Z,3.40
2017-10-25T19:49:37.720Z,3.70
2017-10-25T19:52:04.988Z,3.50
2017-10-25T19:54:32.268Z,3.90
2017-10-25T19:56:59.535Z,3.60
2017-10-25T19:59:26.827Z,3.73
2017-10-25T20:01:54.096Z,4.00
2017-10-25T20:04:21.371Z,3.60
2017-10-25T20:06:48.650Z,3.43
2017-10-25T20:09:15.940Z,3.73
2017-10-25T20:11:43.238Z,3.37
2017-10-25T20:14:10.611Z,3.50
2017-10-25T20:16:37.895Z,3.40
2017-10-25T20:19:05.556Z,3.87
2017-10-25T20:21:32.854Z,3.47
2017-10-25T20:24:00.140Z,2.90
2017-10-25T20:26:27.435Z,3.77
2017-10-25T20:28:54.691Z,3.77
2017-10-25T20:31:21.970Z,3.50
2017-10-25T20:33:49.235Z,3.93
2017-10-25T20:36:16.517Z,4.20
2017-10-25T20:38:43.770Z,3.40
2017-10-25T20:41:11.042Z,3.37
2017-10-25T20:43:38.343Z,3.50
2017-10-25T20:46:05.640Z,3.37
2017-10-25T20:48:32.912Z,3.50
2017-10-25T20:51:00.195Z,3.10
2017-10-25T20:53:27.468Z,3.57
2017-10-25T20:55:54.782Z,3.63
2017-10-25T20:58:22.041Z,3.00
2017-10-25T21:00:49.370Z,3.13
2017-10-25T21:03:16.671Z,3.70
2017-10-25T21:05:43.971Z,3.80
2017-10-25T21:08:11.272Z,3.30
2017-10-25T21:10:38.565Z,3.70
2017-10-25T21:13:05.835Z,3.60
2017-10-25T21:15:33.123Z,3.50
2017-10-25T21:18:00.392Z,4.07
2017-10-25T21:20:27.684Z,3.90
2017-10-25T21:22:54.948Z,3.13
2017-10-25T21:25:22.232Z,3.53
2017-10-25T21:27:49.511Z,3.70
2017-10-25T21:30:17.083Z,3.43
2017-10-25T21:32:44.351Z,3.53
2017-10-25T21:35:11.618Z,3.00
2017-10-25T21:37:38.892Z,2.93
2017-10-25T21:40:06.146Z,3.67
2017-10-25T21:42:33.434Z,3.50
2017-10-25T21:45:00.702Z,2.97
2017-10-25T21:47:27.987Z,3.80
2017-10-25T21:49:55.282Z,2.93
2017-10-25T21:52:22.582Z,3.60
2017-10-25T21:54:49.858Z,3.53
2017-10-25T21:57:17.140Z,3.97
2017-10-25T21:59:44.414Z,3.57
2017-10-25T22:02:11.699Z,3.60
2017-10-25T22:04:39.067Z,3.60
2017-10-25T22:07:06.332Z,4.30
2017-10-25T22:09:33.624Z,3.97
2017-10-25T22:12:00.910Z,3.70
2017-10-25T22:14:28.180Z,3.10
2017-10-25T22:16:55.475Z,3.40
2017-10-25T22:19:22.735Z,3.30
2017-10-25T22:21:50.023Z,3.20
2017-10-25T22:24:17.318Z,2.90
2017-10-25T22:26:44.603Z,3.50
2017-10-25T22:29:11.854Z,3.13
2017-10-25T22:31:39.136Z,3.60
2017-10-25T22:34:06.417Z,4.03
2017-10-25T22:36:33.691Z,3.20
2017-10-25T22:39:00.952Z,3.40
2017-10-25T22:41:28.234Z,3.60
2017-10-25T22:43:55.495Z,2.73
2017-10-25T22:46:22.775Z,3.73
2017-10-25T22:48:50.046Z,3.77
2017-10-25T22:51:17.319Z,3.67
2017-10-25T22:53:44.584Z,3.30
2017-10-25T22:56:11.883Z,3.10
2017-10-25T22:58:39.144Z,3.53
2017-10-25T23:01:06.404Z,3.30
2017-10-25T23:03:33.684Z,3.87
2017-10-25T23:06:00.943Z,3.20
2017-10-25T23:08:28.222Z,3.90
2017-10-25T23:10:55.487Z,4.40
2017-10-25T23:13:22.775Z,4.67
2017-10-25T23:15:50.036Z,3.97
2017-10-25T23:18:17.320Z,4.10
2017-10-25T23:20:44.582Z,3.80
2017-10-25T23:23:11.867Z,3.40
2017-10-25T23:25:39.122Z,4.53
2017-10-25T23:28:06.376Z,3.27
2017-10-25T23:30:33.656Z,3.10
2017-10-25T23:33:00.921Z,3.30
2017-10-25T23:35:28.191Z,3.10
2017-10-25T23:37:55.451Z,4.10
2017-10-25T23:40:22.731Z,3.80
2017-10-25T23:42:49.984Z,3.70
2017-10-25T23:45:17.267Z,4.53
2017-10-25T23:47:44.532Z,3.43
2017-10-25T23:50:11.818Z,4.60
2017-10-25T23:52:39.078Z,3.70
2017-10-25T23:55:06.339Z,3.60
2017-10-25T23:57:35.619Z,3.90
